Time;durP1;ratioP1;P1;durP2;ratioP2;P2;SDS_P1;SDS_P2;PMS_P1;PMS_P2;Temp;Humidity;BMP_temperature;BMP_pressure;BME280_temperature;BME280_humidity;BME280_pressure;Samples;Min_cycle;Max_cycle;Signal;HPM_P1;HPM_P2
2023/03/12 00:01:58;;;;;;;16.67;7.40;;;;;;;-1.67;81.00;99209.52;1753670;81;25560;-48
2023/03/12 00:04:25;;;;;;;12.20;6.97;;;;;;;-1.70;81.02;99206.08;1753704;81;25528;-48
2023/03/12 00:06:52;;;;;;;13.53;7.28;;;;;;;-1.74;81.07;99205.80;1752309;81;25646;-49
2023/03/12 00:09:18;;;;;;;15.70;7.15;;;;;;;-1.74;81.23;99212.42;1752178;81;25914;-48
2023/03/12 00:11:44;;;;;;;14.05;7.42;;;;;;;-1.76;81.35;99217.69;1753693;81;28135;-49
2023/03/12 00:14:10;;;;;;;14.23;8.03;;;;;;;-1.78;81.44;99209.98;1753792;81;25591;-49
2023/03/12 00:16:36;;;;;;;12.10;7.12;;;;;;;-1.79;81.48;99212.89;1753753;81;25616;-49
2023/03/12 00:19:02;;;;;;;13.98;7.05;;;;;;;-1.82;81.43;99210.23;1746852;81;25612;-48
2023/03/12 00:21:29;;;;;;;14.50;6.92;;;;;;;-1.82;81.65;99211.56;1745766;82;25463;-50
2023/03/12 00:23:55;;;;;;;12.58;6.90;;;;;;;-1.83;81.78;99206.51;1745761;82;27493;-50
2023/03/12 00:26:22;;;;;;;13.83;6.60;;;;;;;-1.85;81.78;99212.59;1745686;82;25552;-49
2023/03/12 00:28:49;;;;;;;12.60;6.37;;;;;;;-1.88;81.78;99205.94;1745287;82;25529;-47
2023/03/12 00:31:26;;;;;;;12.25;7.92;;;;;;;-1.90;81.90;99211.48;1745690;82;25523;-50
2023/03/12 00:33:54;;;;;;;12.73;6.83;;;;;;;-1.93;81.77;99213.31;1745847;82;25576;-48
2023/03/12 00:36:25;;;;;;;13.10;6.75;;;;;;;-1.93;81.88;99208.01;1745753;82;27467;-47
2023/03/12 00:38:52;;;;;;;11.38;6.80;;;;;;;-1.95;82.26;99200.05;1745714;82;25731;-48
2023/03/12 00:41:20;;;;;;;12.03;6.90;;;;;;;-1.95;82.36;99204.03;1745748;82;25453;-50
2023/03/12 00:43:48;;;;;;;12.95;6.58;;;;;;;-1.96;82.60;99195.28;1745747;82;25561;-47
2023/03/12 00:46:14;;;;;;;15.65;7.58;;;;;;;-1.96;82.90;99195.28;1718186;82;25581;-49
2023/03/12 00:48:41;;;;;;;11.88;6.72;;;;;;;-1.95;83.03;99193.42;1745755;82;27557;-49
2023/03/12 00:51:08;;;;;;;16.57;7.78;;;;;;;-1.96;83.43;99196.61;1745705;82;25552;-50
2023/03/12 00:53:36;;;;;;;14.30;7.75;;;;;;;-1.95;83.37;99191.56;1745740;82;25531;-49
2023/03/12 00:56:06;;;;;;;13.38;7.85;;;;;;;-1.94;83.50;99196.33;1745842;82;25574;-50
2023/03/12 00:58:32;;;;;;;13.13;7.25;;;;;;;-1.94;84.18;99197.66;1745948;82;25407;-51
2023/03/12 01:00:58;;;;;;;14.90;7.95;;;;;;;-1.92;84.09;99193.72;1745881;82;27582;-49
2023/03/12 01:03:25;;;;;;;17.00;8.25;;;;;;;-1.89;84.29;99193.72;1745784;82;27379;-48
2023/03/12 01:05:54;;;;;;;16.25;8.78;;;;;;;-1.88;84.36;99195.33;1718406;82;25617;-50
2023/03/12 01:08:22;;;;;;;13.18;8.58;;;;;;;-1.88;84.70;99186.84;1745962;81;25619;-49
2023/03/12 01:10:48;;;;;;;15.98;8.63;;;;;;;-1.86;85.14;99183.16;1718276;82;25546;-49
2023/03/12 01:13:16;;;;;;;16.40;8.33;;;;;;;-1.86;84.84;99187.13;1718270;82;27524;-50
2023/03/12 01:15:42;;;;;;;14.90;9.33;;;;;;;-1.84;84.91;99184.48;1745787;82;26834;-49
2023/03/12 01:18:09;;;;;;;16.65;8.60;;;;;;;-1.83;85.09;99173.38;1746885;82;25394;-50
2023/03/12 01:20:35;;;;;;;17.60;9.60;;;;;;;-1.82;85.31;99170.97;1748769;82;25557;-50
2023/03/12 01:23:02;;;;;;;17.50;9.25;;;;;;;-1.79;85.62;99175.77;1748902;82;25402;-49
2023/03/12 01:25:28;;;;;;;16.75;9.18;;;;;;;-1.78;86.07;99175.52;1748780;82;27470;-50
2023/03/12 01:27:54;;;;;;;20.37;8.90;;;;;;;-1.74;86.23;99166.53;1748725;82;25627;-50
2023/03/12 01:30:21;;;;;;;20.32;9.80;;;;;;;-1.72;86.38;99179.81;1748854;82;25548;-50
2023/03/12 01:32:47;;;;;;;16.45;9.18;;;;;;;-1.68;86.60;99168.70;1748803;82;25545;-53
2023/03/12 01:35:13;;;;;;;15.25;8.65;;;;;;;-1.65;86.54;99172.15;1748854;82;25465;-51
2023/03/12 01:37:39;;;;;;;21.60;10.48;;;;;;;-1.62;86.33;99163.69;1723300;82;27520;-50
2023/03/12 01:40:07;;;;;;;17.05;9.48;;;;;;;-1.58;86.52;99166.12;1748760;81;25545;-50
2023/03/12 01:42:33;;;;;;;16.32;9.60;;;;;;;-1.54;86.44;99164.00;1723474;82;25586;-50
2023/03/12 01:45:03;;;;;;;17.60;9.50;;;;;;;-1.53;86.40;99147.58;1748733;82;25603;-50
2023/03/12 01:47:33;;;;;;;20.62;10.05;;;;;;;-1.48;86.26;99148.12;1748786;82;25440;-51
2023/03/12 01:50:00;;;;;;;16.45;9.23;;;;;;;-1.46;86.33;99149.47;1723206;82;27327;-50
2023/03/12 01:52:31;;;;;;;19.45;10.20;;;;;;;-1.42;86.11;99143.12;1723112;82;25406;-50
2023/03/12 01:55:09;;;;;;;18.98;10.10;;;;;;;-1.42;86.33;99145.23;1748820;81;25615;-50
2023/03/12 01:57:49;;;;;;;18.95;10.13;;;;;;;-1.39;86.35;99145.27;1747583;82;27649;-50
2023/03/12 02:00:21;;;;;;;17.82;9.35;;;;;;;-1.38;86.37;99144.19;1748837;82;25594;-51
2023/03/12 02:02:49;;;;;;;16.97;9.83;;;;;;;-1.37;86.00;99143.14;1748813;82;27511;-51
2023/03/12 02:05:26;;;;;;;16.32;10.35;;;;;;;-1.34;86.12;99151.38;1748659;82;25611;-50
2023/03/12 02:07:54;;;;;;;19.32;10.80;;;;;;;-1.33;86.14;99150.34;1748216;82;25382;-48
2023/03/12 02:10:22;;;;;;;22.95;10.32;;;;;;;-1.29;86.17;99159.08;1748766;82;25484;-50
2023/03/12 02:12:49;;;;;;;17.27;9.75;;;;;;;-1.28;86.05;99157.50;1748807;82;25393;-51
2023/03/12 02:15:15;;;;;;;16.07;9.18;;;;;;;-1.26;86.10;99158.06;1748780;82;27538;-52
2023/03/12 02:17:42;;;;;;;21.05;9.83;;;;;;;-1.25;86.02;99160.97;1748516;81;25236;-51
2023/03/12 02:20:23;;;;;;;17.42;9.83;;;;;;;-1.24;85.98;99169.72;1745883;82;25406;-51
2023/03/12 02:22:58;;;;;;;18.42;10.15;;;;;;;-1.19;85.96;99157.80;1718134;82;26514;-50
2023/03/12 02:25:37;;;;;;;23.07;10.30;;;;;;;-1.17;86.18;99155.17;1740832;82;25475;-48
2023/03/12 02:28:08;;;;;;;20.02;9.70;;;;;;;-1.15;85.97;99156.25;1745819;82;27548;-51
2023/03/12 02:30:36;;;;;;;15.15;9.25;;;;;;;-1.13;86.03;99164.73;1745742;82;25624;-50
2023/03/12 02:33:06;;;;;;;19.57;9.38;;;;;;;-1.11;85.88;99172.45;1718350;82;25466;-49
2023/03/12 02:35:33;;;;;;;19.95;10.78;;;;;;;-1.09;85.90;99166.34;1745821;81;25729;-53
2023/03/12 02:37:59;;;;;;;19.15;9.25;;;;;;;-1.08;85.92;99163.44;1745886;82;25426;-52
2023/03/12 02:40:33;;;;;;;19.37;10.45;;;;;;;-1.06;85.86;99164.50;1745948;82;27582;-51
2023/03/12 02:43:02;;;;;;;17.52;8.75;;;;;;;-1.05;85.83;99158.16;1745744;82;25581;-50
2023/03/12 02:45:29;;;;;;;20.88;10.32;;;;;;;-1.06;85.96;99164.50;1746050;81;25535;-53
2023/03/12 02:47:55;;;;;;;22.93;10.82;;;;;;;-1.04;85.94;99164.53;1745898;81;25618;-50
2023/03/12 02:50:22;;;;;;;21.40;10.15;;;;;;;-1.03;85.94;99166.11;1745943;82;25581;-49
2023/03/12 02:52:48;;;;;;;17.87;9.30;;;;;;;-1.02;85.95;99161.59;1745791;82;27541;-50
2023/03/12 02:55:15;;;;;;;15.98;9.73;;;;;;;-1.02;85.99;99165.06;1745680;81;25383;-50
2023/03/12 02:57:42;;;;;;;15.10;9.28;;;;;;;-0.99;85.98;99163.73;1741301;82;25441;-51
2023/03/12 03:00:12;;;;;;;24.50;9.75;;;;;;;-0.98;85.98;99160.03;1745789;82;25516;-50
2023/03/12 03:02:39;;;;;;;;;;;;;;;-0.96;85.97;99152.06;1697402;82;25398;-52
2023/03/12 03:05:09;;;;;;;17.27;8.73;;;;;;;-0.94;86.16;99159.77;1756247;81;27665;-50
2023/03/12 03:07:36;;;;;;;15.83;9.88;;;;;;;-0.93;86.06;99165.89;1745618;81;25650;-50
2023/03/12 03:10:05;;;;;;;15.83;8.10;;;;;;;-0.92;86.12;99176.23;1715951;82;25495;-49
2023/03/12 03:12:35;;;;;;;15.68;8.28;;;;;;;-0.90;85.99;99173.31;1745649;82;25564;-50
2023/03/12 03:15:02;;;;;;;16.50;8.30;;;;;;;-0.88;86.00;99181.30;1713411;82;25621;-49
2023/03/12 03:17:29;;;;;;;16.82;7.65;;;;;;;-0.87;86.03;99176.78;1715946;82;27588;-50
2023/03/12 03:19:56;;;;;;;16.12;8.35;;;;;;;-0.85;85.89;99187.42;1745359;82;27392;-49
2023/03/12 03:22:22;;;;;;;15.98;8.25;;;;;;;-0.84;85.86;99182.37;1716293;82;25635;-49
2023/03/12 03:24:49;;;;;;;15.40;8.60;;;;;;;-0.83;85.81;99183.19;1715832;82;25506;-50
2023/03/12 03:27:16;;;;;;;16.37;8.03;;;;;;;-0.82;85.88;99184.77;1745530;81;25585;-50
2023/03/12 03:29:45;;;;;;;13.90;7.78;;;;;;;-0.82;85.76;99192.73;1745485;82;27455;-50
2023/03/12 03:32:12;;;;;;;;;;;;;;;-0.81;85.78;99195.13;1748028;82;25587;-50
2023/03/12 03:34:38;;;;;;;17.35;8.05;;;;;;;-0.79;85.72;99193.54;1745557;81;25644;-50
2023/03/12 03:37:05;;;;;;;15.83;8.25;;;;;;;-0.79;85.74;99199.64;1745418;82;25535;-50
2023/03/12 03:39:31;;;;;;;16.55;7.35;;;;;;;-0.78;85.78;99202.58;1745556;82;25409;-50
2023/03/12 03:41:58;;;;;;;16.45;7.58;;;;;;;-0.76;85.70;99209.75;1745494;81;29615;-49
2023/03/12 03:44:24;;;;;;;17.02;8.50;;;;;;;-0.76;85.65;99211.61;1745403;82;25851;-50
2023/03/12 03:46:52;;;;;;;15.80;7.67;;;;;;;-0.74;85.54;99214.80;1745478;82;25487;-49
2023/03/12 03:49:19;;;;;;;15.28;8.45;;;;;;;-0.74;85.49;99215.34;1745470;82;25599;-49
2023/03/12 03:51:46;;;;;;;13.32;8.75;;;;;;;-0.72;85.51;99207.91;1716120;82;25489;-49
2023/03/12 03:54:12;;;;;;;15.03;8.48;;;;;;;-0.72;85.38;99203.38;1745481;82;27482;-50
2023/03/12 03:56:40;;;;;;;13.00;7.35;;;;;;;-0.70;85.31;99204.45;1745402;82;25459;-50
2023/03/12 03:59:07;;;;;;;16.70;8.58;;;;;;;-0.70;85.34;99215.87;1745467;82;25445;-50
2023/03/12 04:01:33;;;;;;;13.90;8.05;;;;;;;-0.71;85.21;99201.01;1745499;81;26141;-49
2023/03/12 04:04:00;;;;;;;18.07;8.30;;;;;;;-0.70;85.28;99215.87;1715810;82;25522;-49
2023/03/12 04:06:28;;;;;;;12.10;7.35;;;;;;;-0.69;85.24;99214.82;1745451;82;27466;-50
2023/03/12 04:08:56;;;;;;;16.67;8.58;;;;;;;-0.68;85.15;99223.58;1745387;82;25823;-50
2023/03/12 04:11:23;;;;;;;14.53;7.55;;;;;;;-0.71;84.97;99230.22;1745531;81;25631;-50
2023/03/12 04:13:50;;;;;;;14.65;7.40;;;;;;;-0.70;85.06;99234.45;1745498;82;25508;-53
2023/03/12 04:16:18;;;;;;;14.87;8.15;;;;;;;-0.69;85.02;99231.30;1745540;81;25470;-54
2023/03/12 04:18:45;;;;;;;17.45;7.92;;;;;;;-0.70;85.06;99228.36;1748137;81;28083;-54
2023/03/12 04:21:14;;;;;;;12.00;7.28;;;;;;;-0.70;85.01;99236.33;1761821;81;25598;-53
2023/03/12 04:23:41;;;;;;;14.28;7.97;;;;;;;-0.71;85.09;99230.77;1761998;81;25452;-53
2023/03/12 04:26:07;;;;;;;14.47;7.65;;;;;;;-0.70;85.12;99233.13;1761886;80;25454;-54
2023/03/12 04:28:35;;;;;;;11.57;7.75;;;;;;;-0.69;85.18;99237.94;1761909;81;25554;-50
2023/03/12 04:31:05;;;;;;;13.55;7.33;;;;;;;-0.68;85.07;99239.00;1761987;81;27688;-49
2023/03/12 04:33:36;;;;;;;11.00;7.40;;;;;;;-0.69;85.10;99250.67;1762039;81;25569;-49
2023/03/12 04:36:04;;;;;;;14.60;8.30;;;;;;;-0.67;85.09;99245.11;1761951;81;25472;-50
2023/03/12 04:38:31;;;;;;;10.18;7.37;;;;;;;-0.66;85.07;99239.53;1733886;81;25495;-49
2023/03/12 04:41:09;;;;;;;13.40;7.72;;;;;;;-0.66;84.99;99239.53;1761991;81;25456;-50
2023/03/12 04:43:35;;;;;;;14.75;7.55;;;;;;;-0.66;84.95;99232.89;1761532;81;27307;-50
2023/03/12 04:46:03;;;;;;;13.05;7.55;;;;;;;-0.65;84.93;99234.47;1761987;81;25615;-50
2023/03/12 04:48:30;;;;;;;11.90;6.67;;;;;;;-0.64;84.97;99235.30;1700112;82;25419;-49
2023/03/12 04:50:56;;;;;;;12.85;7.25;;;;;;;-0.64;84.92;99236.08;1761955;81;26161;-48
2023/03/12 04:53:23;;;;;;;14.15;7.42;;;;;;;-0.64;84.89;99218.03;1733708;81;25655;-49
2023/03/12 04:55:51;;;;;;;12.07;7.20;;;;;;;-0.64;85.01;99228.12;1761970;81;27525;-49
2023/03/12 04:58:19;;;;;;;10.68;6.78;;;;;;;-0.64;85.01;99226.00;1761849;81;25461;-48
2023/03/12 05:00:48;;;;;;;10.98;6.70;;;;;;;-0.63;85.02;99234.22;1700002;82;25638;-49
2023/03/12 05:03:16;;;;;;;12.78;6.83;;;;;;;-0.63;85.12;99224.92;1742786;82;25556;-48
2023/03/12 05:05:42;;;;;;;13.48;7.22;;;;;;;-0.61;85.11;99225.48;1742764;82;25647;-49
2023/03/12 05:08:08;;;;;;;11.68;6.47;;;;;;;-0.60;85.09;99233.70;1717546;82;27573;-49
2023/03/12 05:10:35;;;;;;;11.65;6.33;;;;;;;-0.59;85.10;99239.30;1742627;82;25720;-49
2023/03/12 05:13:02;;;;;;;14.87;7.05;;;;;;;-0.58;85.15;99240.88;1717488;82;25639;-49
2023/03/12 05:15:28;;;;;;;9.95;6.80;;;;;;;-0.56;85.20;99249.41;1742643;82;25537;-49
2023/03/12 05:17:55;;;;;;;13.22;6.62;;;;;;;-0.54;85.13;99242.50;1742642;82;25643;-49
2023/03/12 05:20:21;;;;;;;10.35;7.72;;;;;;;-0.52;85.16;99235.86;1750858;81;28297;-50
2023/03/12 05:22:48;;;;;;;12.88;6.40;;;;;;;-0.52;85.19;99240.38;1723077;82;25893;-49
2023/03/12 05:25:14;;;;;;;13.78;6.78;;;;;;;-0.52;85.14;99233.20;1750915;82;25404;-49
2023/03/12 05:27:40;;;;;;;8.93;6.50;;;;;;;-0.50;85.17;99238.25;1750910;81;25712;-49
2023/03/12 05:30:09;;;;;;;10.68;7.03;;;;;;;-0.50;85.14;99236.39;1750900;82;25582;-50
2023/03/12 05:32:36;;;;;;;13.38;7.15;;;;;;;-0.47;85.17;99240.39;1751057;82;27463;-49
2023/03/12 05:35:03;;;;;;;9.58;6.40;;;;;;;-0.46;85.20;99234.83;1750910;82;25458;-51
2023/03/12 05:37:29;;;;;;;11.80;5.92;;;;;;;-0.44;85.19;99250.51;1750959;82;25390;-50
2023/03/12 05:39:56;;;;;;;14.38;6.17;;;;;;;-0.43;85.17;99251.55;1750928;81;25553;-53
2023/03/12 05:42:24;;;;;;;11.12;6.22;;;;;;;-0.42;85.09;99251.83;1750997;82;25413;-53
2023/03/12 05:44:51;;;;;;;10.82;6.40;;;;;;;-0.41;85.10;99254.77;1750942;82;27543;-51
2023/03/12 05:47:18;;;;;;;11.30;6.60;;;;;;;-0.39;85.14;99254.51;1750870;82;25387;-50
2023/03/12 05:49:46;;;;;;;11.18;6.37;;;;;;;-0.37;85.18;99269.65;1750904;82;25461;-49
2023/03/12 05:52:13;;;;;;;9.65;6.30;;;;;;;-0.35;85.26;99252.13;1750824;82;25588;-49
2023/03/12 05:54:39;;;;;;;10.88;6.58;;;;;;;-0.35;85.30;99254.78;1723352;82;25494;-49
2023/03/12 05:57:05;;;;;;;10.98;7.12;;;;;;;-0.34;85.35;99259.83;1750848;82;27503;-50
2023/03/12 05:59:33;;;;;;;9.05;6.78;;;;;;;-0.33;85.50;99265.40;1750819;82;25581;-50
2023/03/12 06:01:59;;;;;;;9.40;6.47;;;;;;;-0.32;85.46;99258.22;1750900;81;25465;-51
2023/03/12 06:04:26;;;;;;;9.23;5.92;;;;;;;-0.31;85.56;99253.18;1750892;82;25647;-51
2023/03/12 06:06:52;;;;;;;11.53;6.67;;;;;;;-0.29;85.58;99264.34;1750898;82;25556;-50
2023/03/12 06:09:19;;;;;;;12.18;6.20;;;;;;;-0.27;85.60;99263.58;1750898;82;27905;-48
2023/03/12 06:11:45;;;;;;;10.45;6.67;;;;;;;-0.26;85.55;99272.58;1750796;82;27364;-49
2023/03/12 06:14:12;;;;;;;9.75;6.47;;;;;;;-0.25;85.50;99270.21;1722973;82;25611;-49
2023/03/12 06:16:38;;;;;;;7.40;5.62;;;;;;;-0.23;85.50;99284.03;1750773;82;26233;-50
2023/03/12 06:19:05;;;;;;;10.43;6.03;;;;;;;-0.20;85.40;99294.68;1748926;81;25478;-54
2023/03/12 06:21:34;;;;;;;10.28;6.30;;;;;;;-0.18;85.32;99297.08;1711256;83;29616;-49
2023/03/12 06:24:01;;;;;;;11.85;6.10;;;;;;;-0.18;85.25;99288.56;1700378;83;25468;-50
2023/03/12 06:26:28;;;;;;;14.07;6.53;;;;;;;-0.15;85.15;99299.19;1711240;83;25608;-49
2023/03/12 06:28:55;;;;;;;9.68;6.33;;;;;;;-0.14;85.16;99305.58;1684571;83;26146;-50
2023/03/12 06:31:23;;;;;;;10.78;5.62;;;;;;;-0.12;85.02;99281.39;1711256;83;25414;-50
2023/03/12 06:33:52;;;;;;;10.30;6.22;;;;;;;-0.09;84.95;99300.81;1711243;83;27473;-50
2023/03/12 06:36:19;;;;;;;13.10;5.42;;;;;;;-0.06;84.89;99291.78;1711320;83;25552;-48
2023/03/12 06:38:46;;;;;;;9.08;5.62;;;;;;;-0.01;84.73;99301.63;1711236;83;25430;-51
2023/03/12 06:41:16;;;;;;;10.32;5.90;;;;;;;0.03;84.60;99302.69;1711221;83;25578;-49
2023/03/12 06:43:44;;;;;;;8.93;5.60;;;;;;;0.13;84.84;99305.36;1711256;83;25579;-49
2023/03/12 06:46:15;;;;;;;8.30;5.42;;;;;;;0.21;84.59;99308.59;1711258;83;28142;-51
2023/03/12 06:48:42;;;;;;;11.15;5.53;;;;;;;0.24;84.23;99322.16;1711164;83;25794;-50
2023/03/12 06:51:11;;;;;;;8.18;5.55;;;;;;;0.29;83.79;99313.36;1711218;83;25563;-50
2023/03/12 06:53:38;;;;;;;7.15;4.95;;;;;;;0.30;83.55;99313.10;1711147;83;25568;-51
2023/03/12 06:56:08;;;;;;;8.13;5.07;;;;;;;0.31;83.03;99331.21;1711489;83;25616;-51
2023/03/12 06:58:34;;;;;;;7.83;4.87;;;;;;;0.28;83.51;99327.74;1711230;83;27457;-51
2023/03/12 07:01:02;;;;;;;5.95;4.37;;;;;;;0.28;83.34;99317.89;1711119;83;25567;-50
2023/03/12 07:03:29;;;;;;;9.55;5.30;;;;;;;0.31;83.41;99336.53;1711234;83;25544;-52
2023/03/12 07:05:57;;;;;;;7.75;4.47;;;;;;;0.30;83.34;99335.71;1700745;83;25800;-50
2023/03/12 07:08:31;;;;;;;8.55;4.72;;;;;;;0.31;83.21;99334.66;1711271;83;25631;-51
2023/03/12 07:10:55;;;;;;;8.13;4.28;;;;;;;0.35;83.36;99338.92;1683638;83;28207;-49
2023/03/12 07:13:23;;;;;;;6.33;4.30;;;;;;;0.38;82.94;99345.59;1711165;83;25663;-51
2023/03/12 07:15:50;;;;;;;5.40;4.00;;;;;;;0.43;82.48;99350.91;1711237;83;25469;-52
2023/03/12 07:18:18;;;;;;;6.20;4.17;;;;;;;0.49;82.13;99357.28;1709442;83;25505;-51
2023/03/12 07:20:46;;;;;;;8.13;4.15;;;;;;;0.55;82.62;99350.91;1734252;81;25672;-51
2023/03/12 07:23:15;;;;;;;6.40;3.93;;;;;;;0.68;82.47;99353.59;1751129;82;29673;-50
2023/03/12 07:25:43;;;;;;;7.62;3.98;;;;;;;0.88;82.17;99345.31;1750836;82;25609;-51
2023/03/12 07:28:11;;;;;;;9.00;4.45;;;;;;;0.98;81.89;99345.84;1750978;82;25555;-50
2023/03/12 07:30:40;;;;;;;6.83;3.83;;;;;;;1.23;81.51;99355.67;1751168;82;26144;-51
2023/03/12 07:33:10;;;;;;;8.88;3.90;;;;;;;1.56;81.21;99361.44;1750966;82;25617;-51
2023/03/12 07:35:39;;;;;;;3.83;3.02;;;;;;;1.53;79.85;99366.76;1750898;82;27458;-49
2023/03/12 07:38:07;;;;;;;9.73;3.70;;;;;;;1.48;78.93;99362.77;1750750;82;25814;-50
2023/03/12 07:40:35;;;;;;;7.15;3.42;;;;;;;1.40;78.00;99367.36;1723109;82;25655;-50
2023/03/12 07:43:03;;;;;;;6.42;4.17;;;;;;;1.37;77.94;99366.02;1750835;82;25629;-50
2023/03/12 07:45:29;;;;;;;4.95;3.80;;;;;;;1.37;78.23;99366.02;1750868;82;25408;-50
2023/03/12 07:47:55;;;;;;;5.78;3.47;;;;;;;1.35;77.98;99368.70;1750807;82;28355;-51
2023/03/12 07:50:23;;;;;;;8.45;3.98;;;;;;;1.31;78.06;99372.41;1750791;81;25593;-51
2023/03/12 07:52:49;;;;;;;6.65;3.35;;;;;;;1.27;77.39;99382.81;1750842;82;25427;-51
2023/03/12 07:55:16;;;;;;;7.97;3.25;;;;;;;1.25;78.04;99379.62;1750811;82;25874;-50
2023/03/12 07:57:43;;;;;;;8.08;4.05;;;;;;;1.28;77.66;99371.64;1750850;82;25471;-48
2023/03/12 08:00:11;;;;;;;6.80;3.05;;;;;;;1.35;78.25;99384.14;1750816;82;27512;-52
2023/03/12 08:02:39;;;;;;;4.97;3.70;;;;;;;1.90;74.29;99344.77;1751004;82;25931;-51
2023/03/12 08:05:07;;;;;;;4.22;2.58;;;;;;;2.86;74.65;99383.11;1750892;82;25429;-50
2023/03/12 08:07:34;;;;;;;3.80;2.58;;;;;;;3.96;73.35;99387.33;1750795;82;25573;-52
2023/03/12 08:10:04;;;;;;;3.30;2.55;;;;;;;4.72;69.08;99386.57;1722959;82;25447;-51
2023/03/12 08:12:32;;;;;;;7.00;2.65;;;;;;;4.56;67.88;99381.42;1750900;82;27478;-49
2023/03/12 08:15:00;;;;;;;4.37;2.17;;;;;;;4.35;66.74;99393.53;1745967;82;25493;-50
2023/03/12 08:17:27;;;;;;;4.67;2.22;;;;;;;4.17;66.11;99392.42;1750793;82;25506;-50
2023/03/12 08:19:54;;;;;;;4.20;2.20;;;;;;;3.95;65.57;99404.48;1751055;81;25805;-50
2023/03/12 08:22:20;;;;;;;3.58;2.08;;;;;;;3.68;65.11;99393.82;1753849;81;25468;-50
2023/03/12 08:24:50;;;;;;;6.72;2.10;;;;;;;3.54;66.36;99404.41;1753732;81;27388;-52
2023/03/12 08:27:16;;;;;;;;;;;;;;;3.38;65.30;99411.52;1756336;81;25181;-50
2023/03/12 08:29:44;;;;;;;2.50;2.00;;;;;;;3.19;64.09;99410.89;1759051;81;25483;-50
2023/03/12 08:32:12;;;;;;;3.25;2.25;;;;;;;3.25;67.21;99419.13;1741509;82;25972;-49
2023/03/12 08:34:39;;;;;;;3.02;2.22;;;;;;;3.72;63.73;99410.88;1745523;82;25454;-49
2023/03/12 08:37:06;;;;;;;2.90;2.12;;;;;;;4.09;66.50;99409.93;1745210;82;27332;-50
2023/03/12 08:39:32;;;;;;;2.52;1.80;;;;;;;4.02;63.72;99414.81;1719768;82;25595;-52
2023/03/12 08:42:01;;;;;;;3.37;2.22;;;;;;;3.77;63.36;99417.27;1753777;81;25540;-53
2023/03/12 08:44:28;;;;;;;3.05;2.02;;;;;;;3.49;63.35;99425.03;1753735;81;25398;-51
2023/03/12 08:46:57;;;;;;;4.50;2.35;;;;;;;3.23;63.63;99436.52;1753778;81;25631;-51
2023/03/12 08:49:25;;;;;;;5.72;2.50;;;;;;;2.88;65.27;99445.05;1727344;81;27975;-49
2023/03/12 08:51:53;;;;;;;4.67;2.55;;;;;;;2.58;66.08;99444.20;1753758;81;25749;-52
2023/03/12 08:54:21;;;;;;;4.10;2.05;;;;;;;2.33;66.36;99445.92;1753751;81;25405;-50
2023/03/12 08:56:53;;;;;;;4.83;2.77;;;;;;;2.43;68.95;99450.41;1753684;81;25685;-50
2023/03/12 08:59:22;;;;;;;4.58;2.72;;;;;;;3.34;70.70;99444.70;1753765;81;25616;-54
2023/03/12 09:01:50;;;;;;;5.95;2.45;;;;;;;4.17;70.07;99456.14;1727688;81;32780;-50
2023/03/12 09:04:17;;;;;;;4.63;2.17;;;;;;;4.75;66.33;99441.70;1753927;81;25600;-51
2023/03/12 09:06:44;;;;;;;5.97;3.85;;;;;;;4.81;65.42;99457.94;1753902;81;25394;-49
2023/03/12 09:09:10;;;;;;;3.17;1.67;;;;;;;4.99;64.75;99442.94;1725431;81;25396;-52
2023/03/12 09:11:41;;;;;;;3.27;1.60;;;;;;;5.08;64.14;99456.47;1753723;81;25481;-59
2023/03/12 09:14:08;;;;;;;1.60;1.50;;;;;;;5.14;60.75;99440.56;1753810;81;27407;-50
2023/03/12 09:16:35;;;;;;;3.10;1.75;;;;;;;5.03;57.08;99448.51;1753791;81;25587;-52
2023/03/12 09:19:02;;;;;;;4.12;1.80;;;;;;;4.71;55.44;99453.28;1753873;81;25452;-49
2023/03/12 09:21:28;;;;;;;6.22;1.40;;;;;;;4.36;57.27;99454.83;1725130;82;25528;-49
2023/03/12 09:23:55;;;;;;;6.03;3.17;;;;;;;4.10;55.32;99477.08;1750918;82;25544;-51
2023/03/12 09:26:21;;;;;;;4.25;2.42;;;;;;;4.18;54.85;99471.09;1750957;82;27697;-49
2023/03/12 09:28:48;;;;;;;4.37;2.00;;;;;;;4.85;58.75;99464.84;1750923;82;25685;-50
2023/03/12 09:31:15;;;;;;;2.95;2.37;;;;;;;4.98;56.99;99447.25;1723792;82;25517;-50
2023/03/12 09:33:41;;;;;;;6.47;2.87;;;;;;;5.23;56.82;99456.77;1750699;82;25746;-50
2023/03/12 09:36:09;;;;;;;6.62;3.10;;;;;;;5.92;56.48;99470.28;1723400;82;25666;-50
2023/03/12 09:38:36;;;;;;;5.10;3.02;;;;;;;6.28;56.74;99489.78;1750907;82;27455;-48
2023/03/12 09:41:05;;;;;;;6.35;4.22;;;;;;;6.83;55.66;99475.99;1750885;82;25560;-49
2023/03/12 09:43:44;;;;;;;4.60;2.98;;;;;;;7.47;56.86;99477.95;1751078;82;29970;-50
2023/03/12 09:46:23;;;;;;;5.63;3.13;;;;;;;8.08;56.28;99479.33;1751210;82;25393;-50
2023/03/12 09:48:54;;;;;;;4.80;2.98;;;;;;;8.83;55.21;99472.04;1720459;82;25426;-49
2023/03/12 09:51:37;;;;;;;55.80;52.33;;;;;;;9.47;55.00;99481.36;1723485;82;28213;-49
2023/03/12 09:54:10;;;;;;;78.80;73.80;;;;;;;9.88;48.24;99455.09;1750886;82;25627;-50
2023/03/12 09:56:38;;;;;;;49.00;45.83;;;;;;;10.01;49.40;99493.01;1722253;82;25586;-50
2023/03/12 09:59:11;;;;;;;5.83;2.22;;;;;;;9.73;47.16;99493.43;1750857;82;25617;-50
2023/03/12 10:01:52;;;;;;;5.03;4.00;;;;;;;9.30;46.71;99503.20;1750983;81;25594;-50
2023/03/12 10:04:35;;;;;;;6.20;3.85;;;;;;;8.55;44.41;99495.81;1750989;81;27334;-50
2023/03/12 10:07:22;;;;;;;4.35;2.00;;;;;;;8.11;47.62;99501.05;1751028;82;25572;-52
2023/03/12 10:10:00;;;;;;;6.53;4.75;;;;;;;7.40;47.57;99499.09;1730355;82;25391;-50
2023/03/12 10:12:41;;;;;;;5.15;3.02;;;;;;;6.94;47.55;99502.09;1750876;82;25579;-51
2023/03/12 10:15:37;;;;;;;3.60;2.55;;;;;;;6.45;48.04;99499.91;1750605;82;25622;-51
2023/03/12 10:18:39;;;;;;;4.35;2.20;;;;;;;5.94;47.10;99490.94;1646424;87;27992;-52
2023/03/12 10:21:52;;;;;;;5.08;2.90;;;;;;;5.42;48.10;99501.76;1647670;85;25760;-49
2023/03/12 10:25:01;;;;;;;4.53;2.50;;;;;;;4.91;49.37;99495.86;1630117;88;25688;-51
2023/03/12 10:27:33;;;;;;;8.10;2.67;;;;;;;4.61;50.50;99512.59;1607329;88;25681;-50
2023/03/12 10:30:05;;;;;;;8.78;2.30;;;;;;;4.49;51.44;99513.56;1630230;88;25497;-53
2023/03/12 10:32:43;;;;;;;4.70;1.82;;;;;;;4.38;51.39;99522.82;1628815;88;27326;-49
2023/03/12 10:35:16;;;;;;;2.58;1.70;;;;;;;4.17;51.90;99516.89;1630174;88;25690;-52
2023/03/12 10:38:02;;;;;;;11.78;2.35;;;;;;;3.97;51.22;99520.58;1629735;88;25674;-51
2023/03/12 10:40:37;;;;;;;3.65;2.00;;;;;;;3.98;52.71;99526.20;1630190;88;25587;-50
2023/03/12 10:43:06;;;;;;;3.30;1.82;;;;;;;4.99;52.81;99518.54;1630265;88;25686;-52
2023/03/12 10:45:49;;;;;;;2.65;2.10;;;;;;;5.12;52.18;99530.40;1607196;88;27140;-53
2023/03/12 10:48:23;;;;;;;3.25;1.57;;;;;;;4.92;50.24;99531.48;1629525;88;25570;-54
2023/03/12 10:51:09;;;;;;;3.55;2.20;;;;;;;4.64;47.56;99533.45;1630215;88;25480;-57
2023/03/12 10:53:51;;;;;;;3.22;1.75;;;;;;;4.71;52.37;99529.08;1636167;87;25833;-56
2023/03/12 10:56:18;;;;;;;7.42;2.98;;;;;;;5.49;52.02;99526.87;1644707;87;25270;-51
2023/03/12 10:58:50;;;;;;;3.27;1.75;;;;;;;6.23;49.68;99532.03;1646317;87;27347;-53
2023/03/12 11:01:30;;;;;;;3.92;2.50;;;;;;;5.98;49.11;99519.35;1679715;83;25494;-53
2023/03/12 11:04:18;;;;;;;6.28;2.17;;;;;;;6.00;50.25;99531.14;1710294;83;25430;-59
2023/03/12 11:07:26;;;;;;;5.15;3.20;;;;;;;6.07;49.92;99540.38;1710152;83;25495;-57
2023/03/12 11:10:09;;;;;;;8.13;3.98;;;;;;;6.00;49.54;99545.35;1710367;83;25493;-58
2023/03/12 11:12:38;;;;;;;5.00;3.90;;;;;;;5.74;48.44;99532.36;1709512;83;27505;-55
2023/03/12 11:15:27;;;;;;;4.53;1.62;;;;;;;5.51;46.78;99554.19;1710178;83;25625;-53
2023/03/12 11:18:25;;;;;;;5.83;2.90;;;;;;;5.85;46.99;99549.06;1709412;83;25666;-55
2023/03/12 11:21:10;;;;;;;3.15;1.80;;;;;;;5.69;47.51;99537.02;1710163;83;25665;-51
2023/03/12 11:23:48;;;;;;;2.37;1.55;;;;;;;5.52;48.39;99546.95;1730959;82;25237;-52
2023/03/12 11:26:22;;;;;;;2.70;2.10;;;;;;;5.56;48.64;99558.13;1732916;82;27428;-55
2023/03/12 11:28:54;;;;;;;3.80;1.98;;;;;;;5.47;48.03;99556.43;1736793;82;25623;-54
2023/03/12 11:31:30;;;;;;;3.12;2.47;;;;;;;5.23;47.68;99550.06;1735075;82;25552;-51
2023/03/12 11:34:04;;;;;;;6.15;1.87;;;;;;;5.21;47.27;99563.49;1736896;82;25460;-51
2023/03/12 11:37:03;;;;;;;5.62;3.87;;;;;;;5.31;47.32;99558.01;1736360;82;25479;-54
2023/03/12 11:40:08;;;;;;;4.83;4.05;;;;;;;5.31;47.07;99550.48;1737009;82;27353;-50
2023/03/12 11:43:14;;;;;;;3.55;3.00;;;;;;;5.22;47.15;99556.50;1736315;81;25476;-54
2023/03/12 11:46:06;;;;;;;13.65;3.87;;;;;;;5.60;48.04;99557.00;1736900;82;25530;-55